Time;durP1;ratioP1;P1;durP2;ratioP2;P2;SDS_P1;SDS_P2;PMS_P1;PMS_P2;Temp;Humidity;BMP_temperature;BMP_pressure;BME280_temperature;BME280_humidity;BME280_pressure;Samples;Min_cycle;Max_cycle;Signal;HPM_P1;HPM_P2
2022/01/01 00:00:30;;;;;;;4.53;4.03;;;;;;;5.96;100.00;99032.78;1748414;81;20945;-60
2022/01/01 00:02:58;;;;;;;2.80;2.50;;;;;;;5.97;100.00;99037.08;1761511;81;20956;-60
2022/01/01 00:05:25;;;;;;;2.72;2.20;;;;;;;6.01;100.00;99032.15;1724561;81;20905;-60
2022/01/01 00:07:52;;;;;;;3.40;3.00;;;;;;;5.99;100.00;99033.98;1758680;81;20983;-60
2022/01/01 00:10:20;;;;;;;4.42;2.83;;;;;;;6.01;100.00;99039.92;1752916;81;20872;-60
2022/01/01 00:12:48;;;;;;;5.87;5.28;;;;;;;6.03;100.00;99039.42;1739320;81;20866;-60
2022/01/01 00:15:15;;;;;;;;;;;;;;;6.09;100.00;99049.16;1759577;81;20882;-59
2022/01/01 00:17:42;;;;;;;3.55;3.20;;;;;;;6.12;100.00;99042.55;1747011;81;20771;-60
2022/01/01 00:20:11;;;;;;;3.90;2.25;;;;;;;6.14;100.00;99030.38;1759979;81;21907;-60
2022/01/01 00:22:39;;;;;;;5.80;3.50;;;;;;;6.14;100.00;99034.27;1758347;80;22133;-60
2022/01/01 00:25:07;;;;;;;3.33;2.77;;;;;;;6.17;100.00;99035.44;1757802;81;20913;-59
2022/01/01 00:27:35;;;;;;;4.08;3.10;;;;;;;6.18;100.00;99047.48;1756672;81;20909;-61
2022/01/01 00:30:03;;;;;;;2.77;2.58;;;;;;;6.16;100.00;99047.56;1755915;80;20886;-60
2022/01/01 00:32:29;;;;;;;4.95;2.90;;;;;;;6.17;100.00;99049.70;1738400;81;21160;-60
2022/01/01 00:34:56;;;;;;;7.78;2.87;;;;;;;6.23;100.00;99051.58;1750109;81;20938;-59
2022/01/01 00:37:22;;;;;;;3.58;3.12;;;;;;;6.24;100.00;99045.94;1757753;81;21039;-60
2022/01/01 00:39:49;;;;;;;8.77;2.50;;;;;;;6.24;100.00;99051.13;1748618;79;21350;-60
2022/01/01 00:42:16;;;;;;;2.30;2.10;;;;;;;6.24;100.00;99057.60;1760634;79;21038;-60
2022/01/01 00:44:44;;;;;;;2.77;2.10;;;;;;;6.21;100.00;99070.69;1778491;80;20999;-60
2022/01/01 00:47:10;;;;;;;2.70;2.50;;;;;;;6.20;100.00;99068.55;1776285;78;20961;-60
2022/01/01 00:49:37;;;;;;;2.10;1.90;;;;;;;6.19;100.00;99080.27;1779875;80;20851;-60
2022/01/01 00:52:03;;;;;;;3.30;2.25;;;;;;;6.20;100.00;99076.79;1772905;80;20926;-60
2022/01/01 00:54:30;;;;;;;3.02;2.20;;;;;;;6.15;100.00;99085.20;1777583;78;20947;-60
2022/01/01 00:56:57;;;;;;;2.65;2.00;;;;;;;6.13;100.00;99097.36;1766896;78;21096;-60
2022/01/01 00:59:24;;;;;;;3.52;2.62;;;;;;;6.14;100.00;99105.09;1760897;80;20866;-60
2022/01/01 01:01:51;;;;;;;2.58;2.20;;;;;;;6.16;100.00;99104.59;1795402;79;21477;-60
2022/01/01 01:04:17;;;;;;;5.95;2.25;;;;;;;6.16;100.00;99103.72;1752462;81;21404;-60
2022/01/01 01:06:44;;;;;;;2.77;2.13;;;;;;;6.03;100.00;99106.80;1765180;80;20962;-60
2022/01/01 01:09:11;;;;;;;2.80;2.20;;;;;;;6.00;100.00;99109.52;1758973;80;21904;-60
2022/01/01 01:11:43;;;;;;;4.08;2.20;;;;;;;5.96;100.00;99110.52;1759893;79;20902;-60
2022/01/01 01:14:08;;;;;;;3.27;2.70;;;;;;;5.92;100.00;99105.04;1760194;79;20945;-60
2022/01/01 01:16:34;;;;;;;3.72;2.80;;;;;;;5.89;100.00;99119.41;1763134;80;20873;-60
2022/01/01 01:19:01;;;;;;;5.12;2.47;;;;;;;5.86;100.00;99107.88;1761552;80;20922;-60
2022/01/01 01:21:28;;;;;;;2.37;2.17;;;;;;;5.83;100.00;99112.71;1773718;78;20906;-60
2022/01/01 01:23:55;;;;;;;2.83;2.60;;;;;;;5.79;100.00;99099.92;1776118;80;20926;-60
2022/01/01 01:26:23;;;;;;;2.77;2.33;;;;;;;5.76;100.00;99110.41;1768802;80;20985;-61
2022/01/01 01:28:51;;;;;;;3.72;2.60;;;;;;;5.75;100.00;99108.72;1740437;81;21534;-60
2022/01/01 01:31:18;;;;;;;3.20;2.70;;;;;;;5.72;100.00;99112.27;1764196;79;20946;-60
2022/01/01 01:33:45;;;;;;;8.68;3.00;;;;;;;5.70;100.00;99114.06;1750980;80;21246;-60
2022/01/01 01:36:12;;;;;;;3.93;2.90;;;;;;;5.69;100.00;99125.34;1772511;79;20894;-60
2022/01/01 01:38:39;;;;;;;2.67;2.10;;;;;;;5.69;100.00;99124.50;1761952;79;20961;-60
2022/01/01 01:41:09;;;;;;;3.00;2.40;;;;;;;5.66;100.00;99134.94;1759255;80;20861;-60
2022/01/01 01:43:36;;;;;;;6.17;2.30;;;;;;;5.61;100.00;99135.97;1787821;79;21397;-60
2022/01/01 01:46:12;;;;;;;;;;;;;;;5.58;100.00;99149.03;1762031;79;21085;-60
2022/01/01 01:48:35;;;;;;;2.58;1.87;;;;;;;5.58;100.00;99143.85;1758498;80;20114;-60
2022/01/01 01:51:03;;;;;;;2.90;1.98;;;;;;;5.55;100.00;99147.85;1771498;79;21603;-60
2022/01/01 01:53:29;;;;;;;;;;;;;;;5.52;100.00;99136.31;1763575;81;20934;-60
2022/01/01 01:55:59;;;;;;;2.73;1.60;;;;;;;5.51;100.00;99148.84;1764190;80;20120;-60
2022/01/01 01:58:29;;;;;;;2.00;1.80;;;;;;;5.50;100.00;99143.28;1744786;80;21089;-60
2022/01/01 02:03:27;;;;;;;1.57;1.45;;;;;;;5.48;100.00;99137.30;1752795;81;20914;-60
2022/01/01 02:05:54;;;;;;;2.17;1.40;;;;;;;5.47;100.00;99130.45;1764852;80;20950;-60
2022/01/01 02:08:21;;;;;;;1.73;1.30;;;;;;;5.46;100.00;99139.13;1764628;80;20979;-60
2022/01/01 02:10:51;;;;;;;;;;;;;;;5.44;100.00;99133.15;1766533;80;21257;-60
2022/01/01 02:13:22;;;;;;;1.52;1.07;;;;;;;5.41;100.00;99138.44;1760636;79;20117;-60
2022/01/01 02:16:11;;;;;;;1.42;1.05;;;;;;;5.40;100.00;99136.73;1762237;80;21879;-60
2022/01/01 02:18:15;;;;;;;1.50;1.10;;;;;;;5.42;100.00;99142.70;1762822;79;20946;-60
2022/01/01 02:20:49;;;;;;;0.93;0.70;;;;;;;5.43;100.00;99153.45;1763440;79;20875;-60
2022/01/01 02:23:14;;;;;;;0.80;0.60;;;;;;;5.43;100.00;99154.74;1751577;80;21907;-61
2022/01/01 02:25:41;;;;;;;1.52;0.90;;;;;;;5.48;100.00;99160.61;1763483;80;20883;-60
2022/01/01 02:28:10;;;;;;;0.85;0.70;;;;;;;5.52;100.00;99162.20;1770993;79;20902;-60
2022/01/01 02:30:36;;;;;;;0.85;0.40;;;;;;;5.51;100.00;99161.79;1739916;81;21413;-60
2022/01/01 02:33:03;;;;;;;0.50;0.33;;;;;;;5.52;100.00;99167.38;1747082;80;21442;-60
2022/01/01 02:35:30;;;;;;;0.62;0.53;;;;;;;5.52;100.00;99172.56;1763374;80;21005;-60
2022/01/01 02:37:57;;;;;;;0.47;0.47;;;;;;;5.52;100.00;99160.91;1767935;79;21044;-60
2022/01/01 02:40:23;;;;;;;0.40;0.35;;;;;;;5.50;100.00;99169.17;1772546;79;21083;-60
2022/01/01 02:42:51;;;;;;;1.20;0.93;;;;;;;5.47;100.00;99179.64;1792380;79;20874;-60
2022/01/01 02:45:18;;;;;;;0.70;0.62;;;;;;;5.45;100.00;99184.02;1777541;80;21200;-60
2022/01/01 02:47:45;;;;;;;0.50;0.50;;;;;;;5.43;100.00;99178.05;1767790;80;21028;-60
2022/01/01 02:50:12;;;;;;;1.17;0.70;;;;;;;5.42;100.00;99181.55;1766087;79;20934;-60
2022/01/01 02:52:39;;;;;;;1.77;0.57;;;;;;;5.40;100.00;99172.98;1775590;79;21847;-60
2022/01/01 02:55:08;;;;;;;1.05;0.60;;;;;;;5.41;100.00;99195.40;1800838;78;20919;-60
2022/01/01 02:57:35;;;;;;;1.07;0.60;;;;;;;5.41;100.00;99195.40;1758306;79;20930;-60
2022/01/01 03:00:03;;;;;;;0.40;0.30;;;;;;;5.41;100.00;99205.75;1768898;79;21420;-60
2022/01/01 03:02:29;;;;;;;0.75;0.47;;;;;;;5.39;100.00;99202.36;1758266;79;21027;-60
2022/01/01 03:04:56;;;;;;;2.33;1.00;;;;;;;5.37;100.00;99206.73;1769362;79;20894;-60
2022/01/01 03:07:22;;;;;;;0.65;0.35;;;;;;;5.37;100.00;99206.73;1772352;79;20933;-60
2022/01/01 03:09:49;;;;;;;0.95;0.70;;;;;;;5.39;100.00;99207.55;1772511;80;20973;-60
2022/01/01 03:12:16;;;;;;;0.70;0.55;;;;;;;5.42;100.00;99191.06;1772981;80;21021;-60
2022/01/01 03:14:43;;;;;;;1.55;1.17;;;;;;;5.43;100.00;99198.76;1762310;80;20922;-60
2022/01/01 03:17:10;;;;;;;0.82;0.30;;;;;;;5.46;100.00;99203.86;1765864;79;20950;-60
2022/01/01 03:19:37;;;;;;;1.03;0.60;;;;;;;5.46;100.00;99193.50;1765719;80;20996;-60
2022/01/01 03:22:04;;;;;;;1.02;0.57;;;;;;;5.46;100.00;99200.40;1768007;80;20992;-59
2022/01/01 03:24:31;;;;;;;0.72;0.47;;;;;;;5.43;100.00;99203.94;1747082;79;21815;-60
2022/01/01 03:26:58;;;;;;;1.60;1.43;;;;;;;5.47;100.00;99208.13;1767090;80;21486;-59
2022/01/01 03:29:28;;;;;;;0.98;0.70;;;;;;;5.49;100.00;99229.64;1740416;81;20909;-60
2022/01/01 03:31:53;;;;;;;0.65;0.60;;;;;;;5.50;100.00;99227.89;1772057;79;21446;-60
2022/01/01 03:34:21;;;;;;;0.55;0.55;;;;;;;5.50;100.00;99227.44;1782883;79;20930;-60
2022/01/01 03:36:47;;;;;;;;;;;;;;;5.48;100.00;99220.16;1763979;80;21475;-60
2022/01/01 03:39:14;;;;;;;0.95;0.80;;;;;;;5.49;100.00;99224.47;1779781;80;20140;-59
2022/01/01 03:41:41;;;;;;;1.10;0.70;;;;;;;5.52;100.00;99224.81;1775726;79;20910;-60
2022/01/01 03:44:07;;;;;;;0.80;0.77;;;;;;;5.41;100.00;99209.64;1792635;79;21406;-60
2022/01/01 03:46:34;;;;;;;0.85;0.68;;;;;;;5.55;100.00;99235.91;1761126;80;20957;-60
2022/01/01 03:49:01;;;;;;;1.03;0.73;;;;;;;5.56;100.00;99231.10;1760148;80;21974;-60
2022/01/01 03:51:28;;;;;;;1.00;0.70;;;;;;;5.57;100.00;99219.87;1756356;81;20994;-60
2022/01/01 03:53:54;;;;;;;1.15;1.05;;;;;;;5.57;100.00;99238.00;1761304;80;20962;-60
2022/01/01 03:56:21;;;;;;;1.27;1.17;;;;;;;5.60;100.00;99248.67;1749850;81;20934;-60
2022/01/01 03:58:47;;;;;;;1.35;1.00;;;;;;;5.60;100.00;99247.37;1751213;80;20976;-60
2022/01/01 04:01:14;;;;;;;0.82;0.70;;;;;;;5.68;100.00;99246.66;1746013;80;21054;-59
2022/01/01 04:03:41;;;;;;;1.10;0.60;;;;;;;5.63;100.00;99251.61;1752338;80;20914;-59
2022/01/01 04:06:07;;;;;;;3.10;0.95;;;;;;;5.64;100.00;99242.95;1764853;81;20891;-60
2022/01/01 04:08:34;;;;;;;3.87;3.47;;;;;;;5.69;100.00;99241.06;1763093;81;20927;-59
2022/01/01 04:11:01;;;;;;;2.20;1.00;;;;;;;5.75;100.00;99242.13;1762404;81;21508;-60
2022/01/01 04:13:28;;;;;;;1.33;1.00;;;;;;;5.72;100.00;99246.13;1743774;80;21099;-60
2022/01/01 04:15:54;;;;;;;1.13;0.63;;;;;;;5.68;100.00;99247.12;1752711;80;21619;-60
2022/01/01 04:18:37;;;;;;;0.90;0.70;;;;;;;5.70;100.00;99253.94;1767111;79;21136;-60
2022/01/01 04:20:55;;;;;;;0.93;0.82;;;;;;;5.71;100.00;99262.55;1755451;79;21442;-60
2022/01/01 04:23:23;;;;;;;1.15;1.00;;;;;;;5.78;100.00;99253.68;1763021;79;20949;-59
2022/01/01 04:25:50;;;;;;;;;;;;;;;5.76;100.00;99255.47;1754104;80;21040;-59
2022/01/01 04:28:17;;;;;;;1.77;0.93;;;;;;;5.76;100.00;99252.42;1748455;79;20090;-60
2022/01/01 04:30:43;;;;;;;1.20;1.10;;;;;;;5.81;100.00;99252.27;1776345;79;20959;-60
2022/01/01 04:33:10;;;;;;;1.63;1.00;;;;;;;5.80;100.00;99251.89;1761720;79;20910;-60
2022/01/01 04:35:36;;;;;;;1.17;0.90;;;;;;;5.79;100.00;99260.54;1759351;81;20914;-60
2022/01/01 04:38:04;;;;;;;1.92;1.40;;;;;;;5.77;100.00;99266.22;1764497;81;21095;-60
2022/01/01 04:40:31;;;;;;;1.77;1.32;;;;;;;5.75;100.00;99264.99;1761400;79;20918;-60
2022/01/01 04:42:57;;;;;;;1.40;1.30;;;;;;;5.75;100.00;99264.15;1775296;78;21453;-60
2022/01/01 04:45:24;;;;;;;2.22;1.22;;;;;;;5.72;100.00;99266.85;1742001;80;21534;-59
2022/01/01 04:47:51;;;;;;;1.55;1.17;;;;;;;5.71;100.00;99266.44;1785491;79;20955;-59
2022/01/01 04:50:17;;;;;;;1.85;1.27;;;;;;;5.69;100.00;99277.32;1804898;78;20992;-60
2022/01/01 04:52:45;;;;;;;1.82;1.52;;;;;;;5.69;100.00;99282.50;1790650;80;21457;-60
2022/01/01 04:55:11;;;;;;;;;;;;;;;5.67;100.00;99279.11;1781972;79;20849;-60
2022/01/01 04:57:38;;;;;;;3.90;1.87;;;;;;;5.67;100.00;99285.59;1781543;80;20200;-60
2022/01/01 05:00:06;;;;;;;2.17;1.40;;;;;;;5.65;100.00;99280.90;1775609;80;20973;-60
2022/01/01 05:02:32;;;;;;;2.22;1.62;;;;;;;5.59;100.00;99282.80;1756185;80;20887;-60
2022/01/01 05:04:59;;;;;;;3.10;2.10;;;;;;;5.67;100.00;99286.88;1781690;79;20931;-59
2022/01/01 05:07:26;;;;;;;3.17;2.02;;;;;;;5.68;100.00;99292.45;1751106;81;20889;-60
2022/01/01 05:09:53;;;;;;;2.63;2.17;;;;;;;5.68;100.00;99291.15;1787707;78;20944;-60
2022/01/01 05:12:19;;;;;;;1.80;1.47;;;;;;;5.70;100.00;99288.06;1761344;81;20910;-60
2022/01/01 05:14:46;;;;;;;3.80;1.97;;;;;;;5.67;100.00;99302.42;1766978;81;21064;-59
2022/01/01 05:17:14;;;;;;;2.22;1.57;;;;;;;5.63;100.00;99295.64;1756315;80;20981;-60
2022/01/01 05:19:40;;;;;;;2.98;2.12;;;;;;;5.67;100.00;99299.83;1769634;79;20867;-60
2022/01/01 05:22:07;;;;;;;2.62;2.30;;;;;;;5.71;100.00;99298.81;1753588;80;20894;-60
2022/01/01 05:24:33;;;;;;;2.83;2.27;;;;;;;5.71;100.00;99310.02;1757093;79;20905;-59
2022/01/01 05:27:04;;;;;;;4.40;2.65;;;;;;;5.69;100.00;99305.81;1753410;80;21841;-59
2022/01/01 05:29:30;;;;;;;3.55;2.62;;;;;;;5.68;100.00;99317.05;1747542;80;20940;-59
2022/01/01 05:31:57;;;;;;;3.22;2.72;;;;;;;5.67;100.00;99312.78;1759504;80;20900;-59
2022/01/01 05:34:23;;;;;;;3.60;3.00;;;;;;;5.68;100.00;99316.59;1765964;79;21438;-59
2022/01/01 05:36:50;;;;;;;3.80;3.00;;;;;;;5.68;100.00;99320.48;1764217;80;20918;-59
2022/01/01 05:39:17;;;;;;;3.83;3.30;;;;;;;5.66;100.00;99326.61;1774079;80;21052;-59
2022/01/01 05:41:43;;;;;;;4.00;3.15;;;;;;;5.63;100.00;99318.95;1766984;80;21451;-60
2022/01/01 05:44:10;;;;;;;5.10;2.60;;;;;;;5.62;100.00;99306.45;1752696;80;21448;-60
2022/01/01 05:46:37;;;;;;;3.85;3.02;;;;;;;5.60;100.00;99315.59;1762479;80;20883;-60
2022/01/01 05:49:03;;;;;;;3.87;2.70;;;;;;;5.60;100.00;99309.53;1767127;81;20963;-60
2022/01/01 05:51:30;;;;;;;4.13;3.47;;;;;;;5.57;100.00;99311.80;1763571;80;21018;-60
2022/01/01 05:53:57;;;;;;;3.20;2.85;;;;;;;5.58;100.00;99316.08;1746563;80;20895;-60
2022/01/01 05:56:23;;;;;;;9.93;3.33;;;;;;;5.59;100.00;99313.03;1785456;80;21330;-60
2022/01/01 05:58:50;;;;;;;6.47;3.72;;;;;;;5.59;100.00;99332.00;1759021;81;20896;-60
2022/01/01 06:01:19;;;;;;;6.08;3.00;;;;;;;5.56;100.00;99317.86;1767103;79;20954;-61
2022/01/01 06:03:46;;;;;;;4.42;2.95;;;;;;;5.56;100.00;99306.20;1774251;79;21098;-61
2022/01/01 06:06:13;;;;;;;3.90;3.00;;;;;;;5.59;100.00;99321.64;1777910;79;20915;-61
2022/01/01 06:08:39;;;;;;;4.83;2.85;;;;;;;5.61;100.00;99322.45;1774041;79;21506;-60
2022/01/01 06:11:06;;;;;;;4.90;3.37;;;;;;;5.64;100.00;99320.66;1773885;79;20876;-60
2022/01/01 06:13:33;;;;;;;4.25;2.92;;;;;;;5.64;100.00;99327.14;1769552;79;20923;-60
2022/01/01 06:15:59;;;;;;;5.97;3.65;;;;;;;5.64;100.00;99319.36;1770410;79;21034;-60
2022/01/01 06:18:26;;;;;;;4.78;3.17;;;;;;;5.65;100.00;99319.75;1775155;79;20954;-60
2022/01/01 06:20:53;;;;;;;7.33;3.67;;;;;;;5.66;100.00;99329.20;1769595;80;20944;-61
2022/01/01 06:23:20;;;;;;;3.98;3.50;;;;;;;5.68;100.00;99342.95;1770795;79;21603;-61
2022/01/01 06:25:46;;;;;;;4.60;3.17;;;;;;;5.66;100.00;99352.52;1771354;80;20935;-61
2022/01/01 06:28:13;;;;;;;7.80;3.42;;;;;;;5.65;100.00;99358.60;1764936;79;21853;-60
2022/01/01 06:30:41;;;;;;;4.70;2.83;;;;;;;5.67;100.00;99362.00;1771198;79;21574;-60
2022/01/01 06:33:14;;;;;;;4.42;3.20;;;;;;;5.66;100.00;99363.75;1744166;79;20962;-61
2022/01/01 06:35:42;;;;;;;4.78;2.67;;;;;;;5.68;100.00;99370.16;1739102;80;20982;-61
2022/01/01 06:38:10;;;;;;;4.53;3.00;;;;;;;5.70;100.00;99385.20;1771150;79;21010;-60
2022/01/01 06:40:41;;;;;;;6.83;3.10;;;;;;;5.71;100.00;99380.41;1768773;79;21843;-60
2022/01/01 06:43:13;;;;;;;6.28;3.15;;;;;;;5.74;100.00;99376.42;1758624;80;20909;-61
2022/01/01 06:45:40;;;;;;;8.58;3.27;;;;;;;5.74;100.00;99384.20;1736068;81;20946;-60
2022/01/01 06:48:07;;;;;;;5.43;3.00;;;;;;;5.74;100.00;99384.20;1736452;81;20929;-61
2022/01/01 06:50:38;;;;;;;6.45;3.02;;;;;;;5.74;100.00;99397.15;1762910;80;21651;-61
2022/01/01 06:53:06;;;;;;;7.03;3.33;;;;;;;5.77;100.00;99394.45;1734033;82;21441;-61
2022/01/01 06:55:33;;;;;;;5.28;2.95;;;;;;;5.79;100.00;99400.44;1735010;82;20975;-61
2022/01/01 06:57:59;;;;;;;4.80;3.10;;;;;;;5.78;100.00;99409.13;1738010;80;21526;-61
2022/01/01 07:00:26;;;;;;;7.58;3.58;;;;;;;5.78;100.00;99415.59;1765924;80;20943;-61
2022/01/01 07:02:53;;;;;;;5.22;3.15;;;;;;;5.78;100.00;99414.30;1735788;81;21008;-61
2022/01/01 07:05:24;;;;;;;3.83;2.45;;;;;;;5.77;100.00;99430.72;1759896;80;21053;-61
2022/01/01 07:07:50;;;;;;;5.45;3.27;;;;;;;5.73;100.00;99431.73;1736236;81;20957;-60
2022/01/01 07:10:17;;;;;;;5.65;3.37;;;;;;;5.72;100.00;99443.00;1735435;81;20870;-61
2022/01/01 07:12:43;;;;;;;4.15;3.55;;;;;;;5.70;100.00;99447.38;1750714;81;20920;-61
2022/01/01 07:15:11;;;;;;;6.47;4.00;;;;;;;5.67;100.00;99444.89;1732296;80;20936;-61
2022/01/01 07:17:38;;;;;;;6.60;3.83;;;;;;;5.64;100.00;99446.28;1761862;80;21421;-60
2022/01/01 07:20:06;;;;;;;6.65;3.67;;;;;;;5.61;100.00;99442.88;1767062;81;20931;-61
2022/01/01 07:22:44;;;;;;;8.28;4.17;;;;;;;5.61;100.00;99454.53;1769291;80;21455;-60
2022/01/01 07:25:13;;;;;;;8.08;3.80;;;;;;;5.59;100.00;99453.73;1767466;81;20888;-60
2022/01/01 07:27:40;;;;;;;6.03;3.95;;;;;;;5.58;100.00;99454.64;1765011;79;20932;-61
2022/01/01 07:30:09;;;;;;;6.10;4.05;;;;;;;5.57;100.00;99471.08;1736159;81;21740;-61
2022/01/01 07:32:45;;;;;;;8.40;4.67;;;;;;;5.57;100.00;99473.67;1767039;80;21351;-61
2022/01/01 07:35:13;;;;;;;10.10;4.40;;;;;;;5.59;100.00;99477.04;1767143;80;20951;-61
2022/01/01 07:37:41;;;;;;;7.08;4.40;;;;;;;5.57;100.00;99473.67;1764240;80;20926;-61
2022/01/01 07:40:11;;;;;;;;;;;;;;;5.56;100.00;99488.79;1757285;79;21515;-61
2022/01/01 07:42:38;;;;;;;8.80;4.08;;;;;;;5.53;100.00;99492.77;1743660;82;21130;-61
2022/01/01 07:45:06;;;;;;;6.42;3.92;;;;;;;5.48;100.00;99499.83;1731569;82;20956;-61
2022/01/01 07:47:33;;;;;;;7.03;3.27;;;;;;;5.45;100.00;99489.56;1712819;82;20913;-61
2022/01/01 07:50:00;;;;;;;7.00;4.53;;;;;;;5.42;100.00;99496.13;1726101;82;20921;-61
2022/01/01 07:52:27;;;;;;;9.35;4.08;;;;;;;5.40;100.00;99499.20;1720769;82;20882;-61
2022/01/01 07:54:54;;;;;;;6.23;3.90;;;;;;;5.39;100.00;99502.70;1740578;82;22128;-61
2022/01/01 07:57:21;;;;;;;8.25;4.50;;;;;;;5.41;100.00;99505.26;1726763;82;20874;-62
2022/01/01 07:59:47;;;;;;;7.20;4.65;;;;;;;5.42;100.00;99515.55;1728344;82;20898;-61
2022/01/01 08:02:14;;;;;;;8.08;4.47;;;;;;;5.39;100.00;99524.70;1726403;82;20928;-61
2022/01/01 08:04:41;;;;;;;6.60;4.63;;;;;;;5.37;100.00;99530.37;1749856;80;21032;-61
2022/01/01 08:07:07;;;;;;;5.70;3.87;;;;;;;5.34;100.00;99530.46;1757204;81;21053;-61
2022/01/01 08:09:38;;;;;;;5.50;3.25;;;;;;;5.32;100.00;99541.30;1728393;82;20949;-61
2022/01/01 08:12:03;;;;;;;6.67;3.62;;;;;;;5.32;100.00;99537.41;1732050;82;21464;-61
2022/01/01 08:14:30;;;;;;;8.00;3.55;;;;;;;5.33;100.00;99548.19;1737519;82;20965;-61
2022/01/01 08:17:03;;;;;;;8.43;3.70;;;;;;;5.33;100.00;99543.02;1731859;82;21456;-61
2022/01/01 08:19:30;;;;;;;10.18;4.30;;;;;;;5.33;100.00;99543.02;1730063;82;21650;-61
2022/01/01 08:21:58;;;;;;;8.88;3.67;;;;;;;5.36;100.00;99549.39;1737177;82;20929;-61
2022/01/01 08:24:25;;;;;;;6.50;3.30;;;;;;;5.36;100.00;99560.59;1741851;82;20950;-61
2022/01/01 08:26:53;;;;;;;8.75;3.70;;;;;;;5.39;100.00;99564.84;1740040;82;20967;-61
2022/01/01 08:29:19;;;;;;;7.53;3.70;;;;;;;5.39;100.00;99564.84;1726683;83;21767;-60
2022/01/01 08:31:46;;;;;;;7.67;3.75;;;;;;;5.39;100.00;99567.43;1706847;82;20945;-61
2022/01/01 08:34:13;;;;;;;8.53;3.50;;;;;;;5.39;100.00;99567.43;1721483;83;20947;-61
2022/01/01 08:36:40;;;;;;;7.40;3.92;;;;;;;5.37;100.00;99570.50;1751063;81;20938;-61
2022/01/01 08:39:08;;;;;;;7.67;3.60;;;;;;;5.39;100.00;99577.78;1736856;81;20937;-61
2022/01/01 08:41:35;;;;;;;8.28;4.30;;;;;;;5.41;100.00;99573.42;1760188;80;20909;-60
2022/01/01 08:44:02;;;;;;;6.07;3.50;;;;;;;5.43;100.00;99591.03;1767139;80;20945;-61
2022/01/01 08:46:29;;;;;;;8.43;4.72;;;;;;;5.43;100.00;99598.80;1761431;80;20935;-61
2022/01/01 08:48:56;;;;;;;10.47;3.27;;;;;;;5.45;100.00;99603.50;1765283;80;20894;-61
2022/01/01 08:51:26;;;;;;;6.90;4.03;;;;;;;5.41;100.00;99607.08;1713277;82;20983;-61
2022/01/01 08:53:52;;;;;;;8.78;3.90;;;;;;;5.45;100.00;99608.68;1767995;79;20950;-60
2022/01/01 08:56:20;;;;;;;11.03;3.98;;;;;;;5.47;100.00;99609.50;1758315;79;21303;-61
2022/01/01 08:58:48;;;;;;;9.73;4.28;;;;;;;5.49;100.00;99625.84;1768178;79;20937;-61
2022/01/01 09:01:15;;;;;;;17.62;4.83;;;;;;;5.49;100.00;99638.80;1772587;80;20989;-61
2022/01/01 09:03:43;;;;;;;9.28;4.47;;;;;;;5.49;100.00;99643.97;1755525;79;20950;-60
2022/01/01 09:06:10;;;;;;;10.32;4.45;;;;;;;5.50;100.00;99644.36;1764256;80;21466;-60
2022/01/01 09:08:42;;;;;;;11.67;4.73;;;;;;;5.49;100.00;99654.33;1733859;82;21078;-61
2022/01/01 09:11:12;;;;;;;8.00;4.78;;;;;;;5.48;100.00;99657.80;1757885;80;20927;-61
2022/01/01 09:13:42;;;;;;;9.00;4.87;;;;;;;5.49;100.00;99650.87;1756089;81;20927;-60
2022/01/01 09:16:10;;;;;;;9.05;4.72;;;;;;;5.49;100.00;99666.41;1759676;80;20915;-60
2022/01/01 09:18:42;;;;;;;10.15;4.53;;;;;;;5.47;100.00;99671.64;1755214;81;20928;-61
2022/01/01 09:21:10;;;;;;;9.13;5.33;;;;;;;5.45;100.00;99673.42;1764734;79;21069;-61
2022/01/01 09:23:36;;;;;;;9.13;5.20;;;;;;;5.46;100.00;99681.61;1750079;81;20927;-59
2022/01/01 09:26:03;;;;;;;9.25;5.00;;;;;;;5.42;100.00;99694.22;1788391;80;20961;-59
2022/01/01 09:28:31;;;;;;;11.10;5.42;;;;;;;5.41;100.00;99698.16;1774258;80;20905;-59
2022/01/01 09:30:59;;;;;;;13.75;6.12;;;;;;;5.31;100.00;99702.27;1758658;80;20889;-59
2022/01/01 09:33:32;;;;;;;10.05;5.90;;;;;;;5.31;100.00;99709.19;1765699;80;21123;-59
2022/01/01 09:36:05;;;;;;;10.18;6.03;;;;;;;5.29;100.00;99707.08;1754743;80;20906;-59
2022/01/01 09:38:33;;;;;;;10.13;5.42;;;;;;;5.36;100.00;99714.65;1725052;81;20981;-59
2022/01/01 09:41:03;;;;;;;8.75;4.83;;;;;;;5.37;100.00;99719.37;1752908;80;20969;-59
2022/01/01 09:43:32;;;;;;;12.43;5.47;;;;;;;5.31;100.00;99728.16;1750387;79;21455;-59
2022/01/01 09:46:02;;;;;;;9.63;5.15;;;;;;;5.26;100.00;99728.70;1770549;78;21128;-59
2022/01/01 09:48:30;;;;;;;9.00;5.65;;;;;;;5.26;100.00;99733.05;1781721;79;20898;-59
2022/01/01 09:51:00;;;;;;;12.35;6.90;;;;;;;5.27;100.00;99741.23;1764762;79;20953;-59
2022/01/01 09:53:28;;;;;;;9.70;6.62;;;;;;;5.23;100.00;99752.54;1748874;80;20916;-59
2022/01/01 09:56:00;;;;;;;9.98;5.85;;;;;;;5.20;100.00;99757.80;1777292;78;20919;-60
2022/01/01 09:58:33;;;;;;;11.35;6.05;;;;;;;5.20;100.00;99757.80;1750225;80;21053;-60
2022/01/01 10:01:02;;;;;;;12.93;6.37;;;;;;;5.19;100.00;99766.46;1752513;80;21472;-59
2022/01/01 10:03:36;;;;;;;9.45;6.00;;;;;;;5.18;100.00;99771.21;1762724;80;20916;-59
2022/01/01 10:06:09;;;;;;;12.70;6.85;;;;;;;5.20;100.00;99768.15;1790512;78;20934;-59
2022/01/01 10:08:40;;;;;;;11.70;6.55;;;;;;;5.21;100.00;99773.72;1784002;79;20902;-59
2022/01/01 10:11:08;;;;;;;10.58;6.05;;;;;;;5.16;100.00;99783.76;1783819;78;21056;-60
2022/01/01 10:13:38;;;;;;;10.18;6.03;;;;;;;5.14;100.00;99785.52;1766356;78;21483;-60
2022/01/01 10:16:07;;;;;;;13.83;6.67;;;;;;;5.11;100.00;99788.19;1760610;79;21485;-60
2022/01/01 10:18:38;;;;;;;10.63;5.95;;;;;;;5.10;100.00;99798.59;1759929;81;20904;-60
2022/01/01 10:21:15;;;;;;;13.60;6.28;;;;;;;5.10;100.00;99804.62;1760170;79;20939;-60
2022/01/01 10:23:50;;;;;;;12.13;6.08;;;;;;;5.09;100.00;99795.13;1761328;79;21829;-60
2022/01/01 10:29:15;;;;;;;13.70;7.00;;;;;;;5.03;100.00;99810.81;1794899;78;20965;-60
2022/01/01 10:32:07;;;;;;;9.60;6.00;;;;;;;4.99;100.00;99822.13;1768978;80;20957;-60
2022/01/01 10:34:47;;;;;;;11.53;5.70;;;;;;;4.97;100.00;99818.72;1751740;80;20918;-60
2022/01/01 10:37:15;;;;;;;11.75;5.97;;;;;;;4.97;100.00;99821.30;1743801;80;21590;-61
2022/01/01 10:39:51;;;;;;;12.82;6.62;;;;;;;4.99;100.00;99824.72;1771460;79;20866;-60
2022/01/01 10:42:30;;;;;;;12.60;6.45;;;;;;;5.02;100.00;99833.70;1757278;80;20867;-60
2022/01/01 10:44:59;;;;;;;14.20;6.10;;;;;;;5.03;100.00;99839.27;1749546;79;20897;-61
2022/01/01 10:47:34;;;;;;;11.70;5.72;;;;;;;5.06;100.00;99836.61;1751942;79;26934;-60
2022/01/01 10:52:48;;;;;;;13.72;6.60;;;;;;;5.00;100.00;99836.77;1761184;80;21394;-60
2022/01/01 10:55:19;;;;;;;11.53;5.00;;;;;;;5.01;100.00;99843.63;1762390;79;20937;-60
2022/01/01 10:57:58;;;;;;;9.20;4.10;;;;;;;5.06;100.00;99845.67;1752621;80;21025;-62
2022/01/01 11:00:30;;;;;;;8.43;3.30;;;;;;;5.07;100.00;99840.92;1764991;79;21100;-60
2022/01/01 11:02:59;;;;;;;11.22;3.83;;;;;;;5.04;100.00;99844.88;1757466;80;21776;-60
2022/01/01 11:05:33;;;;;;;7.55;3.20;;;;;;;5.14;100.00;99842.47;1761755;79;20910;-61
2022/01/01 11:08:07;;;;;;;6.28;3.40;;;;;;;5.19;100.00;99842.82;1764075;81;21535;-61
2022/01/01 11:10:37;;;;;;;8.95;4.58;;;;;;;5.17;100.00;99848.02;1736050;81;21481;-60
2022/01/01 11:13:05;;;;;;;8.35;4.00;;;;;;;5.20;100.00;99852.28;1758335;80;21557;-60
2022/01/01 11:15:33;;;;;;;10.03;4.08;;;;;;;5.19;100.00;99851.88;1760175;79;21069;-60
2022/01/01 11:18:02;;;;;;;;;;;;;;;5.22;100.00;99844.05;1723960;81;20965;-60
2022/01/01 11:20:37;;;;;;;11.25;4.58;;;;;;;5.20;100.00;99848.39;1751552;80;20148;-60
2022/01/01 11:23:07;;;;;;;9.93;4.50;;;;;;;5.19;100.00;99849.30;1760755;79;20923;-61
2022/01/01 11:25:36;;;;;;;8.65;4.60;;;;;;;5.21;100.00;99851.38;1745545;79;20979;-60
2022/01/01 11:28:14;;;;;;;8.68;4.60;;;;;;;5.20;100.00;99848.39;1748607;80;21169;-61
2022/01/01 11:31:07;;;;;;;11.40;5.40;;;;;;;5.19;100.00;99845.41;1761405;79;20938;-60
2022/01/01 11:33:47;;;;;;;12.37;5.35;;;;;;;5.11;100.00;99863.25;1760776;80;21582;-61
2022/01/01 11:36:20;;;;;;;11.93;4.92;;;;;;;5.09;100.00;99867.59;1763604;80;20912;-61
2022/01/01 11:38:47;;;;;;;12.10;4.65;;;;;;;5.09;100.00;99875.36;1775462;79;21457;-61
2022/01/01 11:41:19;;;;;;;10.43;5.17;;;;;;;5.09;100.00;99879.70;1749091;80;21477;-60
2022/01/01 11:43:55;;;;;;;10.70;4.87;;;;;;;5.09;100.00;99884.42;1743525;80;20982;-61
2022/01/01 11:46:30;;;;;;;9.43;4.33;;;;;;;5.08;100.00;99882.73;1718276;81;20966;-61